Time;durP1;ratioP1;P1;durP2;ratioP2;P2;SDS_P1;SDS_P2;PMS_P1;PMS_P2;Temp;Humidity;BMP_temperature;BMP_pressure;BME280_temperature;BME280_humidity;BME280_pressure;Samples;Min_cycle;Max_cycle;Signal;HPM_P1;HPM_P2
2021/06/26 00:01:09;;;;;;;7.68;6.53;;;16.10;99.90;;;;;;4994671;28;20086;-90
2021/06/26 00:03:35;;;;;;;10.10;6.35;;;16.00;99.90;;;;;;4994431;28;20108;-91
2021/06/26 00:06:00;;;;;;;9.30;6.30;;;16.10;99.90;;;;;;4992357;28;20077;-91
2021/06/26 00:08:26;;;;;;;8.38;6.25;;;16.00;99.90;;;;;;4994548;28;20081;-91
2021/06/26 00:10:53;;;;;;;8.43;5.90;;;16.00;99.90;;;;;;4993304;28;20030;-91
2021/06/26 00:13:19;;;;;;;8.98;5.82;;;16.10;99.90;;;;;;4994469;28;20045;-90
2021/06/26 00:15:46;;;;;;;11.50;5.97;;;16.30;99.90;;;;;;4995200;28;20034;-92
2021/06/26 00:18:12;;;;;;;7.25;6.55;;;16.00;99.90;;;;;;4993721;28;20054;-90
2021/06/26 00:20:37;;;;;;;6.95;5.93;;;15.90;99.90;;;;;;4993841;28;20197;-91
2021/06/26 00:23:03;;;;;;;8.63;6.20;;;15.90;99.90;;;;;;4994198;28;20045;-91
2021/06/26 00:25:30;;;;;;;8.60;6.63;;;15.90;99.90;;;;;;4996575;28;20038;-91
2021/06/26 00:27:56;;;;;;;6.45;5.78;;;16.00;99.90;;;;;;4994456;28;20380;-91
2021/06/26 00:30:22;;;;;;;8.07;6.40;;;15.90;99.90;;;;;;4992145;28;20034;-91
2021/06/26 00:32:48;;;;;;;7.47;6.07;;;15.90;99.90;;;;;;4993149;28;20054;-91
2021/06/26 00:35:14;;;;;;;7.47;6.35;;;15.90;99.90;;;;;;4996555;28;20061;-92
2021/06/26 00:37:41;;;;;;;9.20;6.25;;;15.70;99.90;;;;;;4994981;28;20018;-91
2021/06/26 00:40:09;;;;;;;9.07;6.50;;;15.70;99.90;;;;;;4996691;28;20044;-91
2021/06/26 00:42:38;;;;;;;8.70;6.07;;;15.80;99.90;;;;;;4996231;28;20030;-91
2021/06/26 00:45:10;;;;;;;8.90;6.15;;;15.90;99.90;;;;;;4997640;28;20064;-91
2021/06/26 00:47:36;;;;;;;9.52;6.78;;;15.90;99.90;;;;;;4999678;28;20518;-92
2021/06/26 00:50:01;;;;;;;7.05;6.35;;;15.70;99.90;;;;;;4997807;28;20022;-91
2021/06/26 00:52:27;;;;;;;7.90;6.28;;;15.60;99.90;;;;;;4996630;28;20034;-91
2021/06/26 00:54:53;;;;;;;7.32;6.32;;;15.60;99.90;;;;;;4996757;28;20403;-92
2021/06/26 00:57:20;;;;;;;8.30;6.60;;;15.60;99.90;;;;;;4997097;28;20061;-91
2021/06/26 00:59:47;;;;;;;7.88;6.32;;;15.50;1.00;;;;;;4999071;28;20559;-91
2021/06/26 01:02:13;;;;;;;8.80;7.03;;;15.50;1.00;;;;;;4998003;28;20022;-91
2021/06/26 01:04:39;;;;;;;7.47;6.43;;;15.60;99.90;;;;;;4996393;28;20560;-91
2021/06/26 01:07:05;;;;;;;6.95;6.25;;;15.60;99.90;;;;;;4999402;28;20018;-91
2021/06/26 01:09:31;;;;;;;10.52;7.28;;;15.50;1.00;;;;;;4997633;28;20536;-91
2021/06/26 01:11:57;;;;;;;7.90;6.25;;;15.50;1.00;;;;;;4996417;28;20030;-91
2021/06/26 01:14:30;;;;;;;8.27;7.03;;;15.50;1.00;;;;;;4997561;28;20109;-92
2021/06/26 01:17:02;;;;;;;9.73;7.03;;;15.50;1.00;;;;;;4997747;28;20034;-91
2021/06/26 01:19:28;;;;;;;7.30;6.60;;;15.60;1.00;;;;;;4996397;28;20038;-91
2021/06/26 01:21:54;;;;;;;7.43;6.65;;;15.60;1.00;;;;;;4996311;28;20509;-91
2021/06/26 01:24:20;;;;;;;7.60;6.38;;;15.40;1.00;;;;;;4997389;28;20030;-91
2021/06/26 01:26:46;;;;;;;9.77;6.97;;;15.30;1.00;;;;;;5011512;28;20033;-91
2021/06/26 01:29:12;;;;;;;8.75;6.43;;;15.20;1.00;;;;;;4997193;28;20042;-91
2021/06/26 01:31:39;;;;;;;10.02;6.65;;;15.20;1.00;;;;;;4996283;28;20022;-91
2021/06/26 01:34:05;;;;;;;7.82;6.80;;;15.30;1.00;;;;;;4995799;28;20037;-91
2021/06/26 01:36:31;;;;;;;7.18;6.47;;;15.10;1.00;;;;;;4996348;28;20037;-91
2021/06/26 01:38:58;;;;;;;8.40;6.32;;;15.10;1.00;;;;;;4996520;28;20065;-91
2021/06/26 01:41:28;;;;;;;12.18;6.78;;;15.00;1.00;;;;;;4998078;28;20061;-91
2021/06/26 01:43:54;;;;;;;11.02;6.20;;;15.10;1.00;;;;;;4997099;28;20035;-91
2021/06/26 01:46:20;;;;;;;9.38;6.50;;;15.00;1.00;;;;;;5002975;28;20029;-91
2021/06/26 01:48:45;;;;;;;8.80;6.90;;;15.20;1.00;;;;;;4998726;28;20025;-92
2021/06/26 01:51:11;;;;;;;9.50;6.88;;;15.20;1.00;;;;;;4995492;28;20057;-91
2021/06/26 01:53:37;;;;;;;9.27;6.47;;;15.00;1.00;;;;;;4995547;28;20035;-91
2021/06/26 01:56:03;;;;;;;8.82;7.10;;;14.90;1.00;;;;;;4995193;28;20034;-91
2021/06/26 01:58:28;;;;;;;10.23;7.35;;;14.90;1.00;;;;;;4998127;28;20058;-91
2021/06/26 02:00:54;;;;;;;8.77;7.68;;;14.80;1.00;;;;;;4996889;28;20120;-91
2021/06/26 02:03:20;;;;;;;9.57;6.72;;;14.80;1.00;;;;;;4996606;28;20027;-91
2021/06/26 02:05:45;;;;;;;9.43;7.07;;;14.80;1.00;;;;;;4996170;28;20479;-92
2021/06/26 02:08:11;;;;;;;7.68;6.88;;;14.80;1.00;;;;;;4995156;28;20033;-92
2021/06/26 02:10:37;;;;;;;8.50;7.18;;;14.80;1.00;;;;;;4995203;28;20029;-91
2021/06/26 02:13:03;;;;;;;8.05;7.07;;;14.80;1.00;;;;;;4996311;28;20026;-92
2021/06/26 02:15:28;;;;;;;7.47;6.72;;;14.80;1.00;;;;;;4996916;28;20030;-91
2021/06/26 02:17:54;;;;;;;10.82;7.40;;;14.90;1.00;;;;;;4994106;28;20031;-91
2021/06/26 02:20:20;;;;;;;8.45;7.20;;;15.10;1.00;;;;;;4998473;28;20125;-91
2021/06/26 02:22:46;;;;;;;8.88;7.00;;;14.70;1.00;;;;;;4997310;28;20031;-91
2021/06/26 02:25:13;;;;;;;8.93;6.63;;;14.80;1.00;;;;;;4996150;28;20026;-91
2021/06/26 02:27:39;;;;;;;9.80;7.25;;;14.80;1.00;;;;;;4996244;28;20057;-91
2021/06/26 02:30:07;;;;;;;9.13;7.40;;;15.00;1.00;;;;;;4993918;28;20033;-91
2021/06/26 02:32:33;;;;;;;7.97;7.10;;;14.80;1.00;;;;;;4994331;28;20026;-91
2021/06/26 02:34:59;;;;;;;10.65;7.28;;;14.70;1.00;;;;;;4996309;28;20121;-91
2021/06/26 02:37:25;;;;;;;8.75;6.72;;;14.80;1.00;;;;;;4996337;28;20514;-91
2021/06/26 02:39:51;;;;;;;7.85;7.03;;;15.20;1.00;;;;;;4996477;28;20036;-91
2021/06/26 02:42:17;;;;;;;11.15;6.68;;;14.80;1.00;;;;;;4995701;28;20105;-92
2021/06/26 02:44:43;;;;;;;9.93;7.25;;;14.80;1.00;;;;;;4992808;28;20037;-91
2021/06/26 02:47:08;;;;;;;12.10;7.28;;;14.70;1.00;;;;;;4995971;28;20026;-91
2021/06/26 02:49:34;;;;;;;8.68;7.75;;;14.80;1.00;;;;;;4996871;28;20049;-91
2021/06/26 02:52:00;;;;;;;9.10;7.47;;;14.70;1.00;;;;;;4995755;28;20026;-92
2021/06/26 02:54:25;;;;;;;11.13;7.80;;;14.60;1.00;;;;;;4995846;28;20413;-91
2021/06/26 02:56:51;;;;;;;9.23;7.47;;;14.60;1.00;;;;;;4996014;28;20026;-90
2021/06/26 02:59:16;;;;;;;10.57;7.63;;;14.60;1.00;;;;;;4996626;28;20038;-91
2021/06/26 03:01:42;;;;;;;10.55;7.20;;;14.50;1.00;;;;;;4995213;28;20029;-91
2021/06/26 03:04:07;;;;;;;12.73;7.35;;;14.50;1.00;;;;;;4995984;28;20129;-91
2021/06/26 03:06:33;;;;;;;8.55;7.03;;;14.40;1.00;;;;;;4996618;28;20022;-91
2021/06/26 03:08:59;;;;;;;9.43;7.32;;;14.40;1.00;;;;;;5010640;28;20038;-91
2021/06/26 03:11:24;;;;;;;11.05;7.03;;;14.40;1.00;;;;;;4995488;28;20030;-91
2021/06/26 03:13:50;;;;;;;8.95;7.50;;;14.40;1.00;;;;;;4994278;28;20038;-91
2021/06/26 03:16:16;;;;;;;13.00;7.30;;;14.50;1.00;;;;;;4994552;28;20184;-91
2021/06/26 03:18:43;;;;;;;7.88;6.85;;;14.20;1.00;;;;;;4995582;28;20045;-91
2021/06/26 03:21:10;;;;;;;9.57;6.97;;;14.20;1.00;;;;;;4994274;28;20037;-91
2021/06/26 03:23:37;;;;;;;12.25;7.32;;;14.20;1.00;;;;;;4995742;28;20026;-91
2021/06/26 03:26:05;;;;;;;12.93;7.20;;;14.10;1.00;;;;;;4994919;28;20034;-91
2021/06/26 03:28:30;;;;;;;9.50;7.38;;;14.10;1.00;;;;;;4994036;28;20042;-91
2021/06/26 03:30:56;;;;;;;11.13;7.57;;;14.10;1.00;;;;;;4996701;28;20053;-91
2021/06/26 03:33:21;;;;;;;9.73;7.47;;;14.10;1.00;;;;;;4993669;28;20026;-91
2021/06/26 03:35:47;;;;;;;11.23;7.65;;;14.10;1.00;;;;;;5011635;28;20042;-91
2021/06/26 03:38:13;;;;;;;12.60;7.93;;;14.30;1.00;;;;;;4996488;28;20029;-91
2021/06/26 03:40:38;;;;;;;8.88;7.93;;;14.00;1.00;;;;;;4994841;28;20137;-91
2021/06/26 03:43:04;;;;;;;8.88;7.97;;;14.00;1.00;;;;;;4994481;28;20110;-92
2021/06/26 03:45:30;;;;;;;12.18;7.53;;;14.10;1.00;;;;;;4995049;28;20038;-91
2021/06/26 03:47:55;;;;;;;9.63;7.65;;;14.10;1.00;;;;;;4994180;28;20023;-91
2021/06/26 03:50:21;;;;;;;13.55;8.23;;;14.10;1.00;;;;;;4994649;28;20509;-91
2021/06/26 03:52:46;;;;;;;9.90;7.88;;;14.10;1.00;;;;;;4995239;28;20031;-91
2021/06/26 03:55:12;;;;;;;11.88;7.05;;;14.10;1.00;;;;;;4994001;28;20026;-91
2021/06/26 03:57:38;;;;;;;9.60;7.80;;;14.20;1.00;;;;;;4978446;28;20026;-91
2021/06/26 04:00:05;;;;;;;9.52;7.78;;;14.20;1.00;;;;;;4993817;28;20038;-90
2021/06/26 04:02:31;;;;;;;11.52;7.78;;;14.20;1.00;;;;;;4996712;28;20086;-91
2021/06/26 04:04:57;;;;;;;9.43;7.50;;;14.10;1.00;;;;;;4994365;28;20070;-92
2021/06/26 04:07:22;;;;;;;13.38;7.65;;;14.20;1.00;;;;;;4995977;28;20097;-92
2021/06/26 04:09:48;;;;;;;10.20;7.68;;;14.20;1.00;;;;;;4993438;28;20459;-92
2021/06/26 04:12:13;;;;;;;9.73;8.10;;;14.10;1.00;;;;;;4994234;28;20052;-91
2021/06/26 04:14:39;;;;;;;9.88;8.75;;;14.10;1.00;;;;;;4998595;28;20038;-92
2021/06/26 04:17:05;;;;;;;9.88;7.70;;;14.10;1.00;;;;;;5000346;28;20022;-92
2021/06/26 04:19:31;;;;;;;10.82;7.70;;;14.20;1.00;;;;;;4997027;28;20116;-92
2021/06/26 04:21:57;;;;;;;8.57;7.75;;;14.20;1.00;;;;;;4998416;28;20037;-92
2021/06/26 04:24:23;;;;;;;11.50;8.20;;;14.30;1.00;;;;;;4998363;28;20030;-92
2021/06/26 04:26:48;;;;;;;10.40;7.85;;;14.30;1.00;;;;;;4997546;28;20466;-92
2021/06/26 04:29:14;;;;;;;11.82;8.30;;;14.30;1.00;;;;;;4999291;28;20023;-92
2021/06/26 04:31:40;;;;;;;11.23;8.18;;;14.30;1.00;;;;;;4999663;28;20035;-92
2021/06/26 04:34:05;;;;;;;10.52;7.85;;;14.40;1.00;;;;;;4997880;28;20026;-91
2021/06/26 04:36:31;;;;;;;8.10;7.30;;;14.40;1.00;;;;;;4998610;28;20038;-93
2021/06/26 04:38:57;;;;;;;12.80;8.10;;;14.40;1.00;;;;;;4996346;28;20439;-92
2021/06/26 04:41:23;;;;;;;9.75;8.18;;;14.40;1.00;;;;;;4997981;28;20048;-92
2021/06/26 04:43:49;;;;;;;11.50;8.07;;;14.80;1.00;;;;;;4996811;28;20026;-90
2021/06/26 04:46:15;;;;;;;8.65;7.10;;;14.40;1.00;;;;;;5000352;28;20491;-93
2021/06/26 04:48:41;;;;;;;11.35;7.57;;;14.50;1.00;;;;;;4998392;28;20091;-92
2021/06/26 04:51:07;;;;;;;13.05;8.05;;;14.60;1.00;;;;;;4993778;28;20030;-92
2021/06/26 04:53:33;;;;;;;10.77;7.47;;;14.60;1.00;;;;;;4997860;28;20035;-92
2021/06/26 04:55:59;;;;;;;9.50;7.88;;;14.70;1.00;;;;;;4998394;28;20045;-92
2021/06/26 04:58:25;;;;;;;10.82;7.75;;;15.20;1.00;;;;;;4996830;28;20501;-92
2021/06/26 05:00:52;;;;;;;9.73;7.88;;;14.80;1.00;;;;;;5000419;28;20061;-92
2021/06/26 05:03:22;;;;;;;13.55;8.45;;;14.70;1.00;;;;;;4999365;28;20037;-92
2021/06/26 05:05:50;;;;;;;10.20;7.78;;;14.70;1.00;;;;;;4997719;28;20038;-92
2021/06/26 05:08:16;;;;;;;11.90;7.63;;;14.80;1.00;;;;;;4997569;28;20050;-92
2021/06/26 05:10:41;;;;;;;8.65;7.63;;;14.90;1.00;;;;;;4998905;28;20069;-92
2021/06/26 05:13:08;;;;;;;9.52;7.53;;;14.90;1.00;;;;;;4995926;28;20030;-92
2021/06/26 05:15:34;;;;;;;10.45;7.95;;;15.10;1.00;;;;;;4998559;28;20026;-92
2021/06/26 05:17:59;;;;;;;9.82;8.00;;;15.20;1.00;;;;;;4997296;28;20070;-92
2021/06/26 05:20:25;;;;;;;11.07;7.57;;;15.20;1.00;;;;;;4998389;28;20049;-92
2021/06/26 05:22:51;;;;;;;11.10;7.65;;;15.20;1.00;;;;;;4999132;28;20023;-92
2021/06/26 05:25:17;;;;;;;8.77;7.70;;;15.30;1.00;;;;;;4996458;28;20022;-92
2021/06/26 05:27:43;;;;;;;9.55;8.15;;;15.60;1.00;;;;;;4997584;28;20053;-92
2021/06/26 05:30:09;;;;;;;9.07;7.82;;;15.20;1.00;;;;;;4996722;28;20109;-91
2021/06/26 05:32:35;;;;;;;11.10;8.55;;;15.30;1.00;;;;;;4997608;28;20098;-92
2021/06/26 05:35:01;;;;;;;11.25;8.13;;;15.20;1.00;;;;;;4998254;28;20045;-92
2021/06/26 05:37:27;;;;;;;11.27;8.60;;;15.20;1.00;;;;;;4998884;28;20030;-92
2021/06/26 05:39:52;;;;;;;8.82;7.90;;;15.30;1.00;;;;;;4997501;28;20839;-92
2021/06/26 05:42:18;;;;;;;10.40;8.05;;;15.20;1.00;;;;;;4996650;28;20077;-91
2021/06/26 05:44:44;;;;;;;10.93;8.18;;;15.30;1.00;;;;;;4996837;28;20483;-92
2021/06/26 05:47:09;;;;;;;9.07;7.85;;;15.30;1.00;;;;;;4995519;28;20034;-92
2021/06/26 05:49:35;;;;;;;9.63;8.23;;;15.40;1.00;;;;;;5002818;28;20027;-92
2021/06/26 05:52:01;;;;;;;14.10;7.93;;;15.50;1.00;;;;;;4998246;28;20037;-92
2021/06/26 05:54:26;;;;;;;10.65;8.38;;;15.60;1.00;;;;;;4996769;28;20026;-92
2021/06/26 05:56:52;;;;;;;10.85;9.05;;;15.60;1.00;;;;;;4997241;28;20033;-92
2021/06/26 05:59:18;;;;;;;8.75;7.90;;;15.60;1.00;;;;;;4997874;28;20030;-92
2021/06/26 06:01:43;;;;;;;10.35;8.35;;;15.80;1.00;;;;;;4996309;28;20426;-92
2021/06/26 06:04:09;;;;;;;11.10;8.18;;;15.80;1.00;;;;;;4998686;28;20045;-92
2021/06/26 06:06:36;;;;;;;8.85;7.82;;;15.90;1.00;;;;;;4995856;28;20027;-92
2021/06/26 06:09:04;;;;;;;10.35;8.05;;;16.00;1.00;;;;;;4995748;28;20023;-92
2021/06/26 06:11:30;;;;;;;13.25;8.68;;;16.10;1.00;;;;;;4996658;28;20030;-92
2021/06/26 06:13:56;;;;;;;10.23;8.27;;;16.20;1.00;;;;;;4999355;28;20038;-96
2021/06/26 06:16:23;;;;;;;9.65;8.23;;;16.50;1.00;;;;;;4998531;28;20103;-93
2021/06/26 06:18:49;;;;;;;10.43;8.38;;;16.20;1.00;;;;;;4996218;28;20022;-89
2021/06/26 06:21:14;;;;;;;10.20;8.23;;;16.30;1.00;;;;;;4994206;28;20041;-91
2021/06/26 06:23:40;;;;;;;11.23;8.40;;;16.40;1.00;;;;;;4996558;28;20214;-93
2021/06/26 06:26:06;;;;;;;12.55;9.10;;;16.50;1.00;;;;;;4997166;28;20511;-92
2021/06/26 06:28:31;;;;;;;10.05;7.75;;;16.60;1.00;;;;;;4994463;28;20474;-91
2021/06/26 06:30:57;;;;;;;10.85;8.70;;;16.60;1.00;;;;;;4997308;28;20402;-91
2021/06/26 06:33:23;;;;;;;9.82;8.40;;;16.60;1.00;;;;;;4995245;28;20439;-91
2021/06/26 06:35:48;;;;;;;11.43;8.95;;;16.80;1.00;;;;;;4997872;28;20054;-91
2021/06/26 06:38:14;;;;;;;9.57;8.48;;;16.80;1.00;;;;;;4996794;28;20506;-90
2021/06/26 06:40:41;;;;;;;13.18;8.73;;;16.70;1.00;;;;;;4996032;28;20038;-92
2021/06/26 06:43:08;;;;;;;12.68;8.60;;;16.80;1.00;;;;;;5001161;28;20069;-96
2021/06/26 06:45:33;;;;;;;11.13;9.43;;;17.00;1.00;;;;;;4996265;28;20091;-96
2021/06/26 06:48:00;;;;;;;11.25;9.48;;;17.20;1.00;;;;;;4995888;28;20033;-96
2021/06/26 06:50:26;;;;;;;12.98;9.18;;;17.30;1.00;;;;;;4996436;28;20045;-96
2021/06/26 06:52:51;;;;;;;11.50;9.40;;;17.40;99.90;;;;;;4996951;28;20446;-96
2021/06/26 06:55:17;;;;;;;10.77;9.10;;;17.40;99.90;;;;;;4998064;28;20034;-95
2021/06/26 06:57:43;;;;;;;13.07;9.55;;;17.60;99.90;;;;;;4995104;28;20025;-95
2021/06/26 07:00:11;;;;;;;11.43;10.02;;;17.70;99.90;;;;;;4993966;28;20129;-96
2021/06/26 07:02:37;;;;;;;11.23;10.02;;;17.80;99.90;;;;;;4997916;28;20058;-95
2021/06/26 07:05:04;;;;;;;10.85;9.52;;;17.80;99.90;;;;;;4996294;28;20479;-96
2021/06/26 07:07:30;;;;;;;10.70;9.43;;;17.80;99.90;;;;;;4997965;28;20126;-95
2021/06/26 07:09:55;;;;;;;13.23;9.50;;;17.90;99.90;;;;;;4996232;28;20502;-96
2021/06/26 07:12:22;;;;;;;10.63;9.35;;;18.20;99.90;;;;;;4995640;28;20153;-94
2021/06/26 07:14:48;;;;;;;15.25;9.15;;;18.30;99.90;;;;;;4996668;28;20113;-96
2021/06/26 07:17:14;;;;;;;11.88;8.68;;;18.40;99.90;;;;;;4998363;28;20045;-95
2021/06/26 07:19:40;;;;;;;15.50;9.25;;;18.40;99.90;;;;;;4996881;28;20039;-95
2021/06/26 07:22:05;;;;;;;11.02;8.48;;;18.40;99.90;;;;;;4994676;28;20507;-95
2021/06/26 07:24:31;;;;;;;14.15;9.52;;;18.70;99.90;;;;;;4995561;28;20105;-95
2021/06/26 07:26:57;;;;;;;12.68;9.00;;;18.50;99.90;;;;;;4995405;28;20064;-95
2021/06/26 07:29:23;;;;;;;9.65;8.45;;;18.50;99.90;;;;;;4996322;28;20042;-95
2021/06/26 07:31:48;;;;;;;10.18;9.02;;;18.60;99.90;;;;;;4994705;28;20084;-95
2021/06/26 07:34:14;;;;;;;11.10;8.65;;;18.50;99.90;;;;;;4995636;28;20018;-96
2021/06/26 07:36:40;;;;;;;10.05;8.73;;;18.50;99.90;;;;;;4994181;28;20117;-95
2021/06/26 07:39:06;;;;;;;11.35;9.20;;;18.40;99.90;;;;;;4993597;28;20026;-96
2021/06/26 07:41:32;;;;;;;9.38;8.25;;;18.30;99.90;;;;;;4996341;28;20040;-94
2021/06/26 07:43:58;;;;;;;9.98;8.05;;;18.30;1.00;;;;;;4993670;28;20084;-95
2021/06/26 07:46:24;;;;;;;10.80;8.48;;;18.40;99.90;;;;;;4995016;28;20034;-95
2021/06/26 07:48:49;;;;;;;10.82;7.97;;;18.60;99.90;;;;;;4995747;28;20018;-94
2021/06/26 07:51:15;;;;;;;8.98;7.97;;;18.60;99.90;;;;;;4994555;28;20045;-95
2021/06/26 07:53:40;;;;;;;8.88;7.97;;;18.70;99.90;;;;;;4997761;28;20037;-94
2021/06/26 07:56:06;;;;;;;10.30;8.23;;;18.80;99.90;;;;;;4996128;28;20077;-95
2021/06/26 07:58:32;;;;;;;8.95;7.88;;;18.90;99.90;;;;;;4995983;28;20073;-94
2021/06/26 08:00:58;;;;;;;8.95;8.05;;;19.00;99.90;;;;;;4995446;28;20033;-95
2021/06/26 08:03:24;;;;;;;9.07;8.18;;;19.10;99.90;;;;;;4994881;28;20543;-95
2021/06/26 08:05:50;;;;;;;8.88;7.97;;;19.10;99.90;;;;;;5009967;28;20399;-95
2021/06/26 08:08:16;;;;;;;9.13;8.07;;;19.10;99.90;;;;;;4992699;28;20019;-95
2021/06/26 08:10:43;;;;;;;10.68;7.63;;;19.10;99.90;;;;;;4995099;28;20038;-95
2021/06/26 08:13:10;;;;;;;9.82;8.27;;;19.30;99.90;;;;;;4993751;28;20042;-96
2021/06/26 08:15:36;;;;;;;10.38;7.85;;;19.50;99.90;;;;;;4995116;28;20491;-91
2021/06/26 08:18:04;;;;;;;9.40;8.43;;;19.60;99.90;;;;;;4994124;28;20472;-91
2021/06/26 08:20:30;;;;;;;8.05;7.13;;;19.50;99.90;;;;;;4993478;28;20038;-93
2021/06/26 08:22:55;;;;;;;10.80;7.72;;;19.60;99.90;;;;;;4992997;28;20567;-93
2021/06/26 08:25:21;;;;;;;8.15;7.35;;;19.70;99.90;;;;;;4993435;28;20130;-92
2021/06/26 08:27:47;;;;;;;8.35;7.25;;;19.90;99.90;;;;;;4995082;28;20073;-92
2021/06/26 08:30:13;;;;;;;10.25;7.43;;;20.00;99.90;;;;;;4992763;28;20031;-92
2021/06/26 08:32:39;;;;;;;10.18;7.10;;;20.10;99.90;;;;;;4995759;28;20026;-96
2021/06/26 08:35:05;;;;;;;8.25;6.57;;;20.10;99.90;;;;;;4995874;28;20027;-95
2021/06/26 08:37:31;;;;;;;10.05;6.95;;;20.20;99.90;;;;;;4995047;28;20027;-96
2021/06/26 08:39:56;;;;;;;9.77;7.07;;;20.50;99.90;;;;;;4995244;28;20045;-95
2021/06/26 08:42:22;;;;;;;9.57;7.30;;;20.60;99.90;;;;;;4993863;28;20621;-96
2021/06/26 08:44:53;;;;;;;9.18;5.95;;;20.60;99.90;;;;;;4995076;28;20033;-95
2021/06/26 08:47:19;;;;;;;10.07;6.90;;;20.80;99.90;;;;;;4995820;28;20046;-95
2021/06/26 08:49:46;;;;;;;8.65;6.57;;;21.00;99.90;;;;;;4995871;28;20045;-96
2021/06/26 08:52:11;;;;;;;8.27;7.13;;;20.90;99.90;;;;;;4994283;28;20027;-95
2021/06/26 08:54:37;;;;;;;6.43;5.82;;;21.10;99.90;;;;;;4993990;28;20030;-95
2021/06/26 08:57:03;;;;;;;7.97;6.70;;;21.40;99.90;;;;;;5009979;28;20026;-95
2021/06/26 08:59:29;;;;;;;8.38;6.70;;;21.60;99.90;;;;;;4994512;28;20043;-96
2021/06/26 09:01:54;;;;;;;6.60;5.90;;;21.40;99.90;;;;;;4997321;28;20041;-96
2021/06/26 09:04:21;;;;;;;7.18;6.25;;;21.50;99.90;;;;;;4996738;28;20038;-95
2021/06/26 09:06:56;;;;;;;6.47;5.82;;;21.60;99.90;;;;;;4998438;28;20034;-96
2021/06/26 09:09:37;;;;;;;6.63;5.93;;;21.70;99.90;;;;;;4997615;28;20232;-95
2021/06/26 09:12:07;;;;;;;7.88;5.88;;;22.20;99.90;;;;;;4997672;28;20026;-96
2021/06/26 09:14:34;;;;;;;7.05;6.22;;;22.30;99.90;;;;;;4998840;28;20034;-95
2021/06/26 09:17:00;;;;;;;5.05;4.63;;;22.20;99.90;;;;;;4998285;28;20046;-95
2021/06/26 09:19:27;;;;;;;5.55;3.65;;;22.40;99.90;;;;;;4997673;28;20495;-95
2021/06/26 09:22:11;;;;;;;4.22;3.83;;;22.60;99.90;;;;;;4999251;28;20512;-95
2021/06/26 09:24:50;;;;;;;6.35;4.68;;;22.80;99.90;;;;;;4998775;28;20052;-94
2021/06/26 09:27:18;;;;;;;4.65;4.25;;;22.70;99.90;;;;;;4994002;28;20053;-95
2021/06/26 09:29:52;;;;;;;6.22;5.00;;;22.70;99.90;;;;;;5003321;28;20034;-94
2021/06/26 09:32:26;;;;;;;3.70;3.40;;;22.70;99.90;;;;;;4998876;28;20049;-95
2021/06/26 09:34:53;;;;;;;6.70;4.85;;;22.80;99.90;;;;;;4996156;28;20177;-95
2021/06/26 09:37:25;;;;;;;7.13;5.15;;;22.90;99.90;;;;;;4997444;28;20029;-95
2021/06/26 09:39:53;;;;;;;5.15;4.65;;;23.10;99.90;;;;;;4996948;28;20502;-94
2021/06/26 09:42:25;;;;;;;3.60;3.30;;;23.20;99.90;;;;;;4996850;28;20018;-94
2021/06/26 09:44:52;;;;;;;3.95;3.10;;;23.20;99.90;;;;;;4998374;28;20030;-94
2021/06/26 09:47:30;;;;;;;4.38;3.20;;;23.30;99.90;;;;;;4999271;28;20066;-95
2021/06/26 09:50:10;;;;;;;3.78;3.47;;;23.30;99.90;;;;;;4997231;28;20037;-94
2021/06/26 09:52:48;;;;;;;3.20;2.90;;;23.20;99.90;;;;;;4998606;28;20553;-94
2021/06/26 09:55:20;;;;;;;6.25;3.17;;;23.40;99.90;;;;;;4998972;28;20037;-94
2021/06/26 09:57:46;;;;;;;4.07;3.20;;;23.20;99.90;;;;;;4981289;28;20503;-94
2021/06/26 10:00:13;;;;;;;3.63;3.33;;;23.40;99.90;;;;;;4996240;28;20125;-93
2021/06/26 10:02:38;;;;;;;5.05;3.30;;;23.60;99.90;;;;;;4998604;28;20027;-94
2021/06/26 10:05:05;;;;;;;3.92;3.42;;;23.80;99.90;;;;;;4997599;28;20088;-93
2021/06/26 10:07:31;;;;;;;3.67;3.33;;;24.10;99.90;;;;;;4997994;28;20030;-93
2021/06/26 10:09:57;;;;;;;4.68;3.08;;;23.80;99.90;;;;;;4997167;28;20026;-93
2021/06/26 10:12:23;;;;;;;4.13;3.40;;;23.80;99.90;;;;;;4995764;28;20034;-93
2021/06/26 10:14:49;;;;;;;3.50;3.20;;;23.60;99.90;;;;;;4996384;28;20041;-94
2021/06/26 10:17:15;;;;;;;4.05;2.97;;;23.60;99.90;;;;;;4997050;28;20023;-94
2021/06/26 10:19:42;;;;;;;3.40;3.10;;;23.50;99.90;;;;;;4996703;28;20042;-93
2021/06/26 10:22:08;;;;;;;3.30;3.00;;;23.50;99.90;;;;;;4996904;28;20475;-94
2021/06/26 10:24:35;;;;;;;3.40;3.10;;;23.40;99.90;;;;;;4997375;28;20068;-94
2021/06/26 10:27:00;;;;;;;4.28;3.33;;;23.70;99.90;;;;;;4996299;28;20042;-93
2021/06/26 10:29:36;;;;;;;3.47;3.17;;;23.90;99.90;;;;;;4995496;28;20046;-93
2021/06/26 10:32:10;;;;;;;3.17;2.97;;;24.10;99.90;;;;;;4996274;28;20050;-93
2021/06/26 10:34:54;;;;;;;3.63;3.25;;;23.90;99.90;;;;;;4997778;28;20031;-93
2021/06/26 10:37:21;;;;;;;3.55;3.22;;;23.90;99.90;;;;;;4997144;28;20038;-93
2021/06/26 10:40:00;;;;;;;3.85;3.45;;;24.10;99.90;;;;;;4996775;28;20057;-94
2021/06/26 10:42:33;;;;;;;3.25;2.95;;;24.10;99.90;;;;;;4995711;28;20205;-93
2021/06/26 10:44:59;;;;;;;3.92;3.63;;;24.10;99.90;;;;;;5011502;28;20038;-93
2021/06/26 10:47:42;;;;;;;4.53;3.38;;;24.00;99.90;;;;;;4995758;28;20046;-92
2021/06/26 10:50:18;;;;;;;4.05;3.38;;;24.10;99.90;;;;;;4994513;28;20027;-93
2021/06/26 10:52:52;;;;;;;4.68;3.72;;;24.30;99.90;;;;;;4994124;28;20026;-93
2021/06/26 10:55:38;;;;;;;4.75;3.20;;;24.40;99.90;;;;;;4995935;28;20030;-93
2021/06/26 10:58:06;;;;;;;3.95;3.17;;;24.20;99.90;;;;;;4995388;28;20545;-92
2021/06/26 11:00:37;;;;;;;3.65;3.30;;;24.00;99.90;;;;;;4996121;28;20038;-93
2021/06/26 11:03:04;;;;;;;3.25;3.03;;;24.20;99.90;;;;;;4995021;28;20026;-92
2021/06/26 11:08:19;;;;;;;3.35;3.05;;;23.90;99.90;;;;;;5010569;28;20066;-84
2021/06/26 11:10:52;;;;;;;3.50;3.20;;;23.80;99.90;;;;;;5012804;28;20029;-84
2021/06/26 11:13:19;;;;;;;3.38;3.08;;;23.60;99.90;;;;;;5012291;28;20030;-84
2021/06/26 11:15:45;;;;;;;4.53;3.38;;;23.90;99.90;;;;;;5012062;28;20045;-84
2021/06/26 11:18:17;;;;;;;3.30;3.00;;;23.90;99.90;;;;;;5013259;28;20022;-84
2021/06/26 11:20:44;;;;;;;3.25;2.95;;;24.10;99.90;;;;;;5011503;28;20516;-84
2021/06/26 11:23:17;;;;;;;4.30;3.00;;;24.10;99.90;;;;;;5011628;28;20030;-84
2021/06/26 11:25:45;;;;;;;4.35;3.05;;;24.30;99.90;;;;;;5012359;28;20088;-84
2021/06/26 11:28:13;;;;;;;3.70;3.40;;;24.40;99.90;;;;;;5012365;28;20423;-84
2021/06/26 11:30:43;;;;;;;5.20;3.40;;;24.30;99.90;;;;;;4997321;28;20064;-83
2021/06/26 11:33:09;;;;;;;3.67;3.17;;;24.10;99.90;;;;;;5008561;28;20063;-84
2021/06/26 11:35:37;;;;;;;4.93;3.53;;;23.80;99.90;;;;;;5011632;28;20029;-84
2021/06/26 11:38:04;;;;;;;3.35;3.05;;;23.80;99.90;;;;;;5012113;28;20092;-84
2021/06/26 11:40:31;;;;;;;4.13;3.22;;;24.00;99.90;;;;;;5012581;28;20048;-83
2021/06/26 11:42:59;;;;;;;3.85;3.20;;;24.10;99.90;;;;;;5013191;28;20034;-84
2021/06/26 11:45:31;;;;;;;4.72;3.40;;;24.20;99.90;;;;;;5012230;28;20038;-84
2021/06/26 11:48:14;;;;;;;6.07;3.80;;;24.30;99.90;;;;;;5011496;28;20036;-84
2021/06/26 11:50:52;;;;;;;3.67;3.38;;;24.60;99.90;;;;;;5010990;28;20125;-84
2021/06/26 11:53:21;;;;;;;3.50;3.20;;;24.70;99.90;;;;;;5012551;28;20458;-84
2021/06/26 11:55:58;;;;;;;3.60;3.30;;;24.70;99.90;;;;;;5011844;28;20025;-84
2021/06/26 11:58:39;;;;;;;3.50;3.20;;;24.70;99.90;;;;;;5012394;28;20030;-84
2021/06/26 12:01:24;;;;;;;3.55;2.95;;;24.80;99.90;;;;;;5012298;28;20092;-84
2021/06/26 12:03:50;;;;;;;3.70;3.05;;;24.90;99.90;;;;;;4997129;28;20025;-84
2021/06/26 12:06:16;;;;;;;3.33;3.03;;;25.00;99.90;;;;;;5011852;28;20042;-84
2021/06/26 12:08:48;;;;;;;4.78;2.97;;;25.30;99.90;;;;;;5012224;28;20080;-84
2021/06/26 12:11:23;;;;;;;5.13;3.22;;;25.40;99.90;;;;;;5011628;28;20026;-84
2021/06/26 12:14:00;;;;;;;3.05;2.75;;;26.00;99.90;;;;;;5011968;28;20082;-84
2021/06/26 12:16:31;;;;;;;3.10;2.80;;;26.50;99.90;;;;;;5011786;28;20022;-84
2021/06/26 12:19:07;;;;;;;3.20;2.88;;;27.60;99.90;;;;;;5011331;28;20038;-84
2021/06/26 12:21:42;;;;;;;3.35;3.15;;;29.20;99.90;;;;;;5011706;28;20525;-84
2021/06/26 12:24:08;;;;;;;3.53;3.20;;;31.10;99.90;;;;;;5010030;28;20485;-84
2021/06/26 12:26:34;;;;;;;3.22;2.80;;;32.10;99.90;;;;;;5011445;28;20084;-84
2021/06/26 12:29:00;;;;;;;6.13;3.33;;;33.00;99.90;;;;;;5011871;28;20045;-84
2021/06/26 12:31:26;;;;;;;3.38;3.08;;;34.00;99.90;;;;;;5011906;28;20026;-84
2021/06/26 12:34:04;;;;;;;2.97;2.78;;;34.20;99.90;;;;;;5011448;28;20052;-84
2021/06/26 12:36:30;;;;;;;3.10;2.90;;;34.00;99.90;;;;;;5015200;28;20057;-85
2021/06/26 12:38:55;;;;;;;3.80;3.20;;;33.50;99.90;;;;;;5015984;28;20465;-85
2021/06/26 12:41:26;;;;;;;5.53;3.13;;;33.80;99.90;;;;;;5015355;28;20049;-84
2021/06/26 12:43:53;;;;;;;3.83;3.30;;;33.90;99.90;;;;;;5015441;28;20457;-84
2021/06/26 12:46:20;;;;;;;3.30;2.92;;;34.00;99.90;;;;;;5015038;28;20030;-85
2021/06/26 12:48:49;;;;;;;3.10;2.90;;;34.60;99.90;;;;;;5014709;28;20041;-85
2021/06/26 12:51:23;;;;;;;3.72;2.97;;;35.00;99.90;;;;;;5015602;28;20029;-85